McIntyre, Louisiana
Current Conditions -  °F | °C
As of 7:34 PM on Monday 22 Dec 2014 (Local Time) from KMNE Reporting Station
Broken Clouds Broken Clouds  
Wind Chill: 17°   Ceiling: 4800
Heat Index: 17°   Visibility: 10mi
Dew Point: 13°   Wind: 0mph
Humidity: 77%   Direction: NA
Pressure: 29.63"   Gusts: NA
Location:  32.7093°N, 93.3068°W
Report Text: KMNE 230134Z AUTO 00000KT 10SM BKN048 BKN050 17/13 A2963 RMK AO2
Loading
Personal Weather Stations






























Interactive Weather Map New forecast layout! Learn more

10-Day Weather Forecast

Advertisements
Track Severe Weather on mobile